sensor_id;sensor_type;location;lat;lon;timestamp;temperature;humidity
55719;DHT22;41623;46.104;19.656;2023-08-20T01:02:47;665.60;1945.60
55719;DHT22;41623;46.104;19.656;2023-08-20T01:05:12;640.80;1996.80
55719;DHT22;41623;46.104;19.656;2023-08-20T01:30:48;665.90;1843.20
55719;DHT22;41623;46.104;19.656;2023-08-20T01:33:14;665.90;1971.20
55719;DHT22;41623;46.104;19.656;2023-08-20T01:35:41;666.00;1817.60
55719;DHT22;41623;46.104;19.656;2023-08-20T01:38:06;665.70;1843.20
55719;DHT22;41623;46.104;19.656;2023-08-20T01:40:33;665.70;1868.80
55719;DHT22;41623;46.104;19.656;2023-08-20T01:47:52;666.00;1868.80
55719;DHT22;41623;46.104;19.656;2023-08-20T01:50:18;665.70;1894.40
55719;DHT22;41623;46.104;19.656;2023-08-20T01:52:43;640.80;1894.40
55719;DHT22;41623;46.104;19.656;2023-08-20T02:02:30;665.70;1894.40
55719;DHT22;41623;46.104;19.656;2023-08-20T02:04:56;640.70;1894.40
55719;DHT22;41623;46.104;19.656;2023-08-20T02:07:22;665.60;1945.60
55719;DHT22;41623;46.104;19.656;2023-08-20T02:09:47;640.90;1894.40
55719;DHT22;41623;46.104;19.656;2023-08-20T02:12:14;640.60;1894.40
55719;DHT22;41623;46.104;19.656;2023-08-20T02:14:40;640.60;1894.40
55719;DHT22;41623;46.104;19.656;2023-08-20T02:17:06;640.70;1868.80
55719;DHT22;41623;46.104;19.656;2023-08-20T02:19:32;640.70;1868.80
55719;DHT22;41623;46.104;19.656;2023-08-20T02:21:58;640.70;1894.40
55719;DHT22;41623;46.104;19.656;2023-08-20T02:24:24;665.60;1894.40
55719;DHT22;41623;46.104;19.656;2023-08-20T02:26:49;640.70;1868.80
55719;DHT22;41623;46.104;19.656;2023-08-20T02:29:15;640.90;1894.40
55719;DHT22;41623;46.104;19.656;2023-08-20T02:31:41;640.60;1894.40
55719;DHT22;41623;46.104;19.656;2023-08-20T02:36:33;665.60;1843.20
55719;DHT22;41623;46.104;19.656;2023-08-20T02:38:58;640.70;1843.20
55719;DHT22;41623;46.104;19.656;2023-08-20T02:41:24;640.70;1843.20
55719;DHT22;41623;46.104;19.656;2023-08-20T02:43:50;640.90;1817.60
55719;DHT22;41623;46.104;19.656;2023-08-20T02:46:15;640.90;1817.60
55719;DHT22;41623;46.104;19.656;2023-08-20T02:48:41;665.60;1817.60
55719;DHT22;41623;46.104;19.656;2023-08-20T02:51:07;665.60;1817.60
55719;DHT22;41623;46.104;19.656;2023-08-20T02:53:33;665.70;1817.60
55719;DHT22;41623;46.104;19.656;2023-08-20T02:55:58;665.70;1817.60
55719;DHT22;41623;46.104;19.656;2023-08-20T02:58:24;665.80;1817.60
55719;DHT22;41623;46.104;19.656;2023-08-20T03:00:50;665.90;1792.00
55719;DHT22;41623;46.104;19.656;2023-08-20T03:03:16;665.90;1792.00
55719;DHT22;41623;46.104;19.656;2023-08-20T03:05:42;665.90;1792.00
55719;DHT22;41623;46.104;19.656;2023-08-20T03:08:08;665.90;1792.00
55719;DHT22;41623;46.104;19.656;2023-08-20T03:10:35;666.00;1792.00
55719;DHT22;41623;46.104;19.656;2023-08-20T03:13:01;665.90;1792.00
55719;DHT22;41623;46.104;19.656;2023-08-20T03:15:28;665.90;1792.00
55719;DHT22;41623;46.104;19.656;2023-08-20T03:17:54;665.80;1817.60
55719;DHT22;41623;46.104;19.656;2023-08-20T03:20:20;665.70;1817.60
55719;DHT22;41623;46.104;19.656;2023-08-20T03:22:45;665.90;1817.60
55719;DHT22;41623;46.104;19.656;2023-08-20T03:25:11;665.60;1817.60
55719;DHT22;41623;46.104;19.656;2023-08-20T03:27:37;666.00;1792.00
55719;DHT22;41623;46.104;19.656;2023-08-20T03:30:04;665.80;1792.00
55719;DHT22;41623;46.104;19.656;2023-08-20T03:32:31;665.70;1792.00
55719;DHT22;41623;46.104;19.656;2023-08-20T03:34:57;665.80;1792.00
55719;DHT22;41623;46.104;19.656;2023-08-20T03:37:25;665.70;1792.00
55719;DHT22;41623;46.104;19.656;2023-08-20T03:39:51;665.80;1792.00
55719;DHT22;41623;46.104;19.656;2023-08-20T03:42:17;665.80;1792.00
55719;DHT22;41623;46.104;19.656;2023-08-20T03:44:43;665.80;1817.60
55719;DHT22;41623;46.104;19.656;2023-08-20T03:47:08;665.70;1817.60
55719;DHT22;41623;46.104;19.656;2023-08-20T03:49:34;665.70;1817.60
55719;DHT22;41623;46.104;19.656;2023-08-20T03:52:00;665.70;1817.60
55719;DHT22;41623;46.104;19.656;2023-08-20T06:01:12;666.50;1766.40
55719;DHT22;41623;46.104;19.656;2023-08-20T06:03:38;666.30;1792.00
55719;DHT22;41623;46.104;19.656;2023-08-20T06:06:04;666.10;1792.00
55719;DHT22;41623;46.104;19.656;2023-08-20T06:08:29;666.10;1766.40
55719;DHT22;41623;46.104;19.656;2023-08-20T06:10:55;666.10;1792.00
55719;DHT22;41623;46.104;19.656;2023-08-20T06:13:21;666.10;1766.40
55719;DHT22;41623;46.104;19.656;2023-08-20T06:15:46;666.10;1792.00
55719;DHT22;41623;46.104;19.656;2023-08-20T06:18:12;666.20;1792.00
